sensor_id;sensor_type;location;lat;lon;timestamp;pressure;altitude;pressure_sealevel;temperature;humidity
74045;BME280;62389;51.412;5.436;2024-03-22T00:00:28;102042.72;;;10.63;100.00
74045;BME280;62389;51.412;5.436;2024-03-22T00:02:54;102040.97;;;10.63;100.00
74045;BME280;62389;51.412;5.436;2024-03-22T00:05:19;102044.44;;;10.66;100.00
74045;BME280;62389;51.412;5.436;2024-03-22T00:07:46;102033.97;;;10.66;100.00
74045;BME280;62389;51.412;5.436;2024-03-22T00:10:12;102038.25;;;10.68;100.00
74045;BME280;62389;51.412;5.436;2024-03-22T00:12:38;102031.25;;;10.70;100.00
74045;BME280;62389;51.412;5.436;2024-03-22T00:15:04;102033.00;;;10.70;100.00
74045;BME280;62389;51.412;5.436;2024-03-22T00:17:29;102021.63;;;10.71;100.00
74045;BME280;62389;51.412;5.436;2024-03-22T00:19:56;102025.06;;;10.73;100.00
74045;BME280;62389;51.412;5.436;2024-03-22T00:22:21;102025.91;;;10.73;100.00
74045;BME280;62389;51.412;5.436;2024-03-22T00:24:46;102027.63;;;10.74;100.00
74045;BME280;62389;51.412;5.436;2024-03-22T00:27:12;102025.00;;;10.74;100.00
74045;BME280;62389;51.412;5.436;2024-03-22T00:29:37;102029.38;;;10.75;100.00
74045;BME280;62389;51.412;5.436;2024-03-22T00:32:04;102027.59;;;10.76;100.00
74045;BME280;62389;51.412;5.436;2024-03-22T00:34:29;102020.59;;;10.76;100.00
74045;BME280;62389;51.412;5.436;2024-03-22T00:36:55;102027.56;;;10.77;100.00
74045;BME280;62389;51.412;5.436;2024-03-22T00:39:20;102020.59;;;10.76;100.00
74045;BME280;62389;51.412;5.436;2024-03-22T00:41:45;102017.94;;;10.78;100.00
74045;BME280;62389;51.412;5.436;2024-03-22T00:44:11;102001.38;;;10.77;100.00
74045;BME280;62389;51.412;5.436;2024-03-22T00:46:36;102004.00;;;10.77;100.00
74045;BME280;62389;51.412;5.436;2024-03-22T00:49:02;101991.78;;;10.78;100.00
74045;BME280;62389;51.412;5.436;2024-03-22T00:51:27;101996.09;;;10.79;100.00
74045;BME280;62389;51.412;5.436;2024-03-22T00:53:53;101981.31;;;10.78;100.00
74045;BME280;62389;51.412;5.436;2024-03-22T00:56:18;101978.66;;;10.79;100.00
74045;BME280;62389;51.412;5.436;2024-03-22T00:58:44;101970.78;;;10.81;100.00
74045;BME280;62389;51.412;5.436;2024-03-22T01:01:09;101968.09;;;10.82;100.00
74045;BME280;62389;51.412;5.436;2024-03-22T01:03:34;101966.31;;;10.84;100.00
74045;BME280;62389;51.412;5.436;2024-03-22T01:06:00;101951.50;;;10.83;100.00
74045;BME280;62389;51.412;5.436;2024-03-22T01:08:25;101943.69;;;10.82;100.00
74045;BME280;62389;51.412;5.436;2024-03-22T01:10:50;101943.63;;;10.83;100.00
74045;BME280;62389;51.412;5.436;2024-03-22T01:13:16;101942.75;;;10.84;100.00
74045;BME280;62389;51.412;5.436;2024-03-22T01:15:42;101938.41;;;10.83;100.00
74045;BME280;62389;51.412;5.436;2024-03-22T01:18:08;101932.28;;;10.84;100.00
74045;BME280;62389;51.412;5.436;2024-03-22T01:20:33;101934.00;;;10.85;100.00
74045;BME280;62389;51.412;5.436;2024-03-22T01:23:01;101927.88;;;10.86;100.00
74045;BME280;62389;51.412;5.436;2024-03-22T01:25:27;101926.03;;;10.88;100.00
74045;BME280;62389;51.412;5.436;2024-03-22T01:27:53;101918.19;;;10.88;100.00
74045;BME280;62389;51.412;5.436;2024-03-22T01:30:18;101913.78;;;10.91;100.00
74045;BME280;62389;51.412;5.436;2024-03-22T01:32:43;101915.50;;;10.92;100.00
74045;BME280;62389;51.412;5.436;2024-03-22T01:35:09;101911.97;;;10.93;100.00
74045;BME280;62389;51.412;5.436;2024-03-22T01:37:34;101923.28;;;10.95;100.00
74045;BME280;62389;51.412;5.436;2024-03-22T01:40:00;101923.28;;;10.95;100.00
74045;BME280;62389;51.412;5.436;2024-03-22T01:42:25;101916.28;;;10.95;100.00
74045;BME280;62389;51.412;5.436;2024-03-22T01:44:50;101916.28;;;10.95;100.00
74045;BME280;62389;51.412;5.436;2024-03-22T01:47:16;101907.53;;;10.96;100.00
74045;BME280;62389;51.412;5.436;2024-03-22T01:49:43;101904.84;;;10.98;100.00
74045;BME280;62389;51.412;5.436;2024-03-22T01:52:08;101897.91;;;10.97;100.00
74045;BME280;62389;51.412;5.436;2024-03-22T01:54:34;101890.06;;;10.97;100.00
74045;BME280;62389;51.412;5.436;2024-03-22T01:57:00;101894.44;;;10.96;100.00
74045;BME280;62389;51.412;5.436;2024-03-22T01:59:25;101899.66;;;10.96;100.00
74045;BME280;62389;51.412;5.436;2024-03-22T02:01:51;101902.34;;;10.95;100.00
74045;BME280;62389;51.412;5.436;2024-03-22T02:04:17;101898.84;;;10.94;100.00
74045;BME280;62389;51.412;5.436;2024-03-22T02:06:42;101892.81;;;10.92;100.00
74045;BME280;62389;51.412;5.436;2024-03-22T02:09:07;101887.63;;;10.91;100.00
74045;BME280;62389;51.412;5.436;2024-03-22T02:11:35;101894.63;;;10.88;100.00
74045;BME280;62389;51.412;5.436;2024-03-22T02:14:01;101892.94;;;10.87;100.00
74045;BME280;62389;51.412;5.436;2024-03-22T02:16:26;101897.31;;;10.87;100.00
74045;BME280;62389;51.412;5.436;2024-03-22T02:18:52;101891.28;;;10.85;100.00
74045;BME280;62389;51.412;5.436;2024-03-22T02:21:17;101887.88;;;10.81;100.00
74045;BME280;62389;51.412;5.436;2024-03-22T02:23:42;101887.94;;;10.78;100.00
74045;BME280;62389;51.412;5.436;2024-03-22T02:26:08;101886.28;;;10.76;100.00
74045;BME280;62389;51.412;5.436;2024-03-22T02:28:34;101875.03;;;10.72;100.00
74045;BME280;62389;51.412;5.436;2024-03-22T02:31:03;101874.25;;;10.70;100.00
74045;BME280;62389;51.412;5.436;2024-03-22T02:33:29;101872.50;;;10.69;100.00
74045;BME280;62389;51.412;5.436;2024-03-22T02:35:55;101874.25;;;10.70;100.00
74045;BME280;62389;51.412;5.436;2024-03-22T02:38:21;101888.19;;;10.69;100.00
74045;BME280;62389;51.412;5.436;2024-03-22T02:40:48;101883.69;;;10.74;100.00
74045;BME280;62389;51.412;5.436;2024-03-22T02:43:14;101881.97;;;10.73;100.00
74045;BME280;62389;51.412;5.436;2024-03-22T02:45:39;101881.97;;;10.73;100.00
74045;BME280;62389;51.412;5.436;2024-03-22T02:48:06;101875.00;;;10.74;100.00
74045;BME280;62389;51.412;5.436;2024-03-22T02:50:35;101868.00;;;10.74;100.00
74045;BME280;62389;51.412;5.436;2024-03-22T02:53:01;101866.22;;;10.76;100.00
74045;BME280;62389;51.412;5.436;2024-03-22T02:55:27;101868.78;;;10.78;100.00
74045;BME280;62389;51.412;5.436;2024-03-22T02:57:52;101857.41;;;10.79;100.00
74045;BME280;62389;51.412;5.436;2024-03-22T03:00:18;101850.31;;;10.82;100.00
74045;BME280;62389;51.412;5.436;2024-03-22T03:02:44;101845.94;;;10.83;100.00
74045;BME280;62389;51.412;5.436;2024-03-22T03:05:09;101833.81;;;10.80;100.00
74045;BME280;62389;51.412;5.436;2024-03-22T03:07:35;101825.97;;;10.80;100.00
74045;BME280;62389;51.412;5.436;2024-03-22T03:10:00;101813.78;;;10.79;100.00
74045;BME280;62389;51.412;5.436;2024-03-22T03:12:26;101814.66;;;10.78;100.00
74045;BME280;62389;51.412;5.436;2024-03-22T03:14:51;101806.06;;;10.75;100.00
74045;BME280;62389;51.412;5.436;2024-03-22T03:17:16;101810.44;;;10.74;100.00
74045;BME280;62389;51.412;5.436;2024-03-22T03:19:42;101807.00;;;10.72;100.00
74045;BME280;62389;51.412;5.436;2024-03-22T03:22:07;101806.88;;;10.77;100.00
74045;BME280;62389;51.412;5.436;2024-03-22T03:24:32;101806.06;;;10.75;100.00
74045;BME280;62389;51.412;5.436;2024-03-22T03:26:58;101797.34;;;10.74;100.00
74045;BME280;62389;51.412;5.436;2024-03-22T03:29:23;101806.94;;;10.74;100.00
74045;BME280;62389;51.412;5.436;2024-03-22T03:31:48;101803.59;;;10.70;100.00
74045;BME280;62389;51.412;5.436;2024-03-22T03:34:14;101793.25;;;10.66;100.00
74045;BME280;62389;51.412;5.436;2024-03-22T03:36:39;101796.78;;;10.65;100.00
74045;BME280;62389;51.412;5.436;2024-03-22T03:39:05;101795.16;;;10.60;100.00
74045;BME280;62389;51.412;5.436;2024-03-22T03:41:30;101787.31;;;10.59;100.00
74045;BME280;62389;51.412;5.436;2024-03-22T03:43:55;101785.59;;;10.58;100.00
74045;BME280;62389;51.412;5.436;2024-03-22T03:46:21;101777.81;;;10.56;100.00
74045;BME280;62389;51.412;5.436;2024-03-22T03:48:46;101776.06;;;10.57;100.00
74045;BME280;62389;51.412;5.436;2024-03-22T03:51:11;101774.41;;;10.53;100.00
74045;BME280;62389;51.412;5.436;2024-03-22T03:53:37;101763.16;;;10.51;100.00
74045;BME280;62389;51.412;5.436;2024-03-22T03:56:02;101754.47;;;10.49;100.00
74045;BME280;62389;51.412;5.436;2024-03-22T03:58:28;101753.69;;;10.47;100.00
74045;BME280;62389;51.412;5.436;2024-03-22T04:00:53;101759.81;;;10.46;100.00
74045;BME280;62389;51.412;5.436;2024-03-22T04:03:18;101757.25;;;10.44;100.00
74045;BME280;62389;51.412;5.436;2024-03-22T04:05:44;101750.34;;;10.42;100.00
74045;BME280;62389;51.412;5.436;2024-03-22T04:08:09;101762.47;;;10.44;100.00
74045;BME280;62389;51.412;5.436;2024-03-22T04:10:34;101752.94;;;10.42;100.00
74045;BME280;62389;51.412;5.436;2024-03-22T04:13:00;101752.94;;;10.42;100.00
74045;BME280;62389;51.412;5.436;2024-03-22T04:15:25;101749.44;;;10.43;100.00
74045;BME280;62389;51.412;5.436;2024-03-22T04:17:51;101748.44;;;10.47;100.00
74045;BME280;62389;51.412;5.436;2024-03-22T04:20:16;101753.72;;;10.45;100.00
74045;BME280;62389;51.412;5.436;2024-03-22T04:22:41;101756.25;;;10.48;100.00
74045;BME280;62389;51.412;5.436;2024-03-22T04:25:07;101747.53;;;10.48;100.00
74045;BME280;62389;51.412;5.436;2024-03-22T04:27:36;101751.06;;;10.47;100.00
74045;BME280;62389;51.412;5.436;2024-03-22T04:30:01;101753.72;;;10.45;100.00
74045;BME280;62389;51.412;5.436;2024-03-22T04:32:27;101758.84;;;10.48;100.00
74045;BME280;62389;51.412;5.436;2024-03-22T04:34:52;101747.66;;;10.45;100.00
74045;BME280;62389;51.412;5.436;2024-03-22T04:37:17;101749.25;;;10.49;100.00
74045;BME280;62389;51.412;5.436;2024-03-22T04:39:45;101744.00;;;10.50;100.00
74045;BME280;62389;51.412;5.436;2024-03-22T04:42:11;101745.84;;;10.47;100.00
74045;BME280;62389;51.412;5.436;2024-03-22T04:44:36;101741.50;;;10.46;100.00
74045;BME280;62389;51.412;5.436;2024-03-22T04:47:02;101750.25;;;10.45;100.00
74045;BME280;62389;51.412;5.436;2024-03-22T04:49:27;101744.13;;;10.46;100.00
74045;BME280;62389;51.412;5.436;2024-03-22T04:51:52;101755.50;;;10.43;100.00
74045;BME280;62389;51.412;5.436;2024-03-22T04:54:18;101748.63;;;10.41;100.00
74045;BME280;62389;51.412;5.436;2024-03-22T04:56:43;101746.09;;;10.37;100.00
74045;BME280;62389;51.412;5.436;2024-03-22T04:59:08;101742.66;;;10.35;100.00
74045;BME280;62389;51.412;5.436;2024-03-22T05:01:33;101747.06;;;10.33;100.00
74045;BME280;62389;51.412;5.436;2024-03-22T05:03:59;101736.59;;;10.33;100.00
74045;BME280;62389;51.412;5.436;2024-03-22T05:06:24;101746.25;;;10.31;100.00
74045;BME280;62389;51.412;5.436;2024-03-22T05:08:49;101739.28;;;10.32;100.00
74045;BME280;62389;51.412;5.436;2024-03-22T05:11:15;101735.75;;;10.33;100.00
74045;BME280;62389;51.412;5.436;2024-03-22T05:13:40;101718.41;;;10.30;100.00
74045;BME280;62389;51.412;5.436;2024-03-22T05:16:06;101729.78;;;10.29;100.00
74045;BME280;62389;51.412;5.436;2024-03-22T05:18:32;101719.31;;;10.29;100.00
74045;BME280;62389;51.412;5.436;2024-03-22T05:20:57;101729.78;;;10.29;100.00
74045;BME280;62389;51.412;5.436;2024-03-22T05:23:23;101726.44;;;10.24;100.00
74045;BME280;62389;51.412;5.436;2024-03-22T05:25:48;101722.91;;;10.25;100.00
74045;BME280;62389;51.412;5.436;2024-03-22T05:28:13;101721.19;;;10.23;100.00
74045;BME280;62389;51.412;5.436;2024-03-22T05:30:39;101716.81;;;10.23;100.00
74045;BME280;62389;51.412;5.436;2024-03-22T05:33:04;101722.16;;;10.20;100.00
74045;BME280;62389;51.412;5.436;2024-03-22T05:35:30;101732.69;;;10.17;100.00
74045;BME280;62389;51.412;5.436;2024-03-22T05:37:55;101724.94;;;10.14;100.00
74045;BME280;62389;51.412;5.436;2024-03-22T05:40:21;101716.28;;;10.12;100.00
74045;BME280;62389;51.412;5.436;2024-03-22T05:42:46;101721.56;;;10.09;100.00
74045;BME280;62389;51.412;5.436;2024-03-22T05:45:11;101719.84;;;10.08;100.00
74045;BME280;62389;51.412;5.436;2024-03-22T05:47:37;101718.94;;;10.09;100.00
74045;BME280;62389;51.412;5.436;2024-03-22T05:50:03;101715.53;;;10.07;100.00
74045;BME280;62389;51.412;5.436;2024-03-22T05:52:29;101715.34;;;10.13;100.00
74045;BME280;62389;51.412;5.436;2024-03-22T05:54:55;101712.88;;;10.08;100.00
74045;BME280;62389;51.412;5.436;2024-03-22T05:57:20;101710.31;;;10.07;100.00
74045;BME280;62389;51.412;5.436;2024-03-22T05:59:46;101713.81;;;10.06;100.00
74045;BME280;62389;51.412;5.436;2024-03-22T06:02:11;101710.31;;;10.07;100.00
74045;BME280;62389;51.412;5.436;2024-03-22T06:04:37;101700.72;;;10.07;100.00
74045;BME280;62389;51.412;5.436;2024-03-22T06:07:02;101705.88;;;10.10;100.00
74045;BME280;62389;51.412;5.436;2024-03-22T06:09:29;101701.50;;;10.11;100.00
74045;BME280;62389;51.412;5.436;2024-03-22T06:12:12;101695.41;;;10.10;100.00
74045;BME280;62389;51.412;5.436;2024-03-22T06:14:38;101701.53;;;10.09;100.00
74045;BME280;62389;51.412;5.436;2024-03-22T06:17:03;101707.56;;;10.11;100.00
74045;BME280;62389;51.412;5.436;2024-03-22T06:19:29;101702.34;;;10.11;100.00
74045;BME280;62389;51.412;5.436;2024-03-22T06:21:54;101700.53;;;10.13;100.00
74045;BME280;62389;51.412;5.436;2024-03-22T06:24:19;101702.28;;;10.15;100.00
74045;BME280;62389;51.412;5.436;2024-03-22T06:26:45;101695.22;;;10.17;100.00
74045;BME280;62389;51.412;5.436;2024-03-22T06:29:10;101700.41;;;10.18;100.00
74045;BME280;62389;51.412;5.436;2024-03-22T06:31:36;101698.66;;;10.19;100.00
74045;BME280;62389;51.412;5.436;2024-03-22T06:34:01;101697.78;;;10.20;100.00
74045;BME280;62389;51.412;5.436;2024-03-22T06:36:31;101702.91;;;10.24;100.00
74045;BME280;62389;51.412;5.436;2024-03-22T06:38:57;101693.28;;;10.25;100.00
74045;BME280;62389;51.412;5.436;2024-03-22T06:41:24;101696.72;;;10.27;100.00
74045;BME280;62389;51.412;5.436;2024-03-22T06:43:49;101701.94;;;10.27;100.00
74045;BME280;62389;51.412;5.436;2024-03-22T06:46:14;101697.50;;;10.29;100.00
74045;BME280;62389;51.412;5.436;2024-03-22T06:48:40;101698.41;;;10.28;100.00
74045;BME280;62389;51.412;5.436;2024-03-22T06:51:06;101701.81;;;10.31;100.00
74045;BME280;62389;51.412;5.436;2024-03-22T06:53:31;101702.53;;;10.36;100.00
74045;BME280;62389;51.412;5.436;2024-03-22T06:55:56;101692.06;;;10.36;100.00
74045;BME280;62389;51.412;5.436;2024-03-22T06:58:21;101697.31;;;10.36;100.00
74045;BME280;62389;51.412;5.436;2024-03-22T07:00:47;101697.22;;;10.40;100.00
74045;BME280;62389;51.412;5.436;2024-03-22T07:03:12;101691.88;;;10.43;100.00
74045;BME280;62389;51.412;5.436;2024-03-22T07:05:37;101700.66;;;10.42;100.00
74045;BME280;62389;51.412;5.436;2024-03-22T07:08:03;101692.78;;;10.42;100.00
74045;BME280;62389;51.412;5.436;2024-03-22T07:10:29;101691.16;;;10.37;100.00
74045;BME280;62389;51.412;5.436;2024-03-22T07:12:56;101689.47;;;10.36;100.00
74045;BME280;62389;51.412;5.436;2024-03-22T07:15:23;101693.25;;;10.26;100.00
74045;BME280;62389;51.412;5.436;2024-03-22T07:17:49;101691.47;;;10.27;100.00
74045;BME280;62389;51.412;5.436;2024-03-22T07:20:14;101687.09;;;10.27;100.00
74045;BME280;62389;51.412;5.436;2024-03-22T07:22:40;101695.69;;;10.32;100.00
74045;BME280;62389;51.412;5.436;2024-03-22T07:25:05;101692.97;;;10.35;100.00
74045;BME280;62389;51.412;5.436;2024-03-22T07:27:30;101705.03;;;10.41;100.00
74045;BME280;62389;51.412;5.436;2024-03-22T07:29:57;101703.78;;;10.53;100.00
74045;BME280;62389;51.412;5.436;2024-03-22T07:32:22;101705.22;;;10.63;100.00
74045;BME280;62389;51.412;5.436;2024-03-22T07:34:48;101691.59;;;10.81;100.00
74045;BME280;62389;51.412;5.436;2024-03-22T07:37:13;101695.56;;;10.95;100.00
74045;BME280;62389;51.412;5.436;2024-03-22T07:39:38;101692.59;;;11.05;100.00
74045;BME280;62389;51.412;5.436;2024-03-22T07:42:04;101691.63;;;11.08;100.00
74045;BME280;62389;51.412;5.436;2024-03-22T07:44:29;101695.94;;;11.09;100.00
74045;BME280;62389;51.412;5.436;2024-03-22T07:46:54;101689.91;;;11.07;100.00
74045;BME280;62389;51.412;5.436;2024-03-22T07:49:20;101691.75;;;11.05;100.00
74045;BME280;62389;51.412;5.436;2024-03-22T07:51:46;101689.22;;;11.02;100.00
74045;BME280;62389;51.412;5.436;2024-03-22T07:54:11;101684.03;;;11.00;100.00
74045;BME280;62389;51.412;5.436;2024-03-22T07:56:36;101679.66;;;11.01;100.00
74045;BME280;62389;51.412;5.436;2024-03-22T07:59:02;101689.06;;;11.06;100.00
74045;BME280;62389;51.412;5.436;2024-03-22T08:01:27;101687.91;;;11.15;100.00
74045;BME280;62389;51.412;5.436;2024-03-22T08:03:53;101687.41;;;11.30;100.00
74045;BME280;62389;51.412;5.436;2024-03-22T08:06:18;101691.13;;;11.50;100.00
74045;BME280;62389;51.412;5.436;2024-03-22T08:08:44;101688.47;;;11.76;100.00
74045;BME280;62389;51.412;5.436;2024-03-22T08:11:10;101686.28;;;11.89;100.00
74045;BME280;62389;51.412;5.436;2024-03-22T08:13:35;101687.03;;;11.92;100.00
74045;BME280;62389;51.412;5.436;2024-03-22T08:16:01;101692.50;;;11.86;100.00
74045;BME280;62389;51.412;5.436;2024-03-22T08:18:26;101685.84;;;11.76;100.00
74045;BME280;62389;51.412;5.436;2024-03-22T08:20:51;101696.41;;;11.73;100.00
74045;BME280;62389;51.412;5.436;2024-03-22T08:23:17;101687.88;;;11.68;100.00
74045;BME280;62389;51.412;5.436;2024-03-22T08:25:45;101693.94;;;11.70;100.00
74045;BME280;62389;51.412;5.436;2024-03-22T08:28:11;101675.13;;;11.57;100.00
74045;BME280;62389;51.412;5.436;2024-03-22T08:30:39;101685.56;;;11.59;100.00
74045;BME280;62389;51.412;5.436;2024-03-22T08:33:04;101682.84;;;11.62;100.00
74045;BME280;62389;51.412;5.436;2024-03-22T08:35:30;101678.72;;;11.55;100.00
74045;BME280;62389;51.412;5.436;2024-03-22T08:37:56;101672.59;;;11.54;100.00
74045;BME280;62389;51.412;5.436;2024-03-22T08:40:21;101673.69;;;11.49;100.00
74045;BME280;62389;51.412;5.436;2024-03-22T08:42:48;101667.56;;;11.50;100.00
74045;BME280;62389;51.412;5.436;2024-03-22T08:45:13;101671.44;;;11.38;100.00
74045;BME280;62389;51.412;5.436;2024-03-22T08:47:39;101671.63;;;11.32;100.00
74045;BME280;62389;51.412;5.436;2024-03-22T08:50:06;101665.78;;;11.24;100.00
74045;BME280;62389;51.412;5.436;2024-03-22T08:52:31;101667.69;;;11.20;100.00
74045;BME280;62389;51.412;5.436;2024-03-22T08:54:57;101672.91;;;11.20;100.00
74045;BME280;62389;51.412;5.436;2024-03-22T08:57:22;101674.63;;;11.21;100.00
74045;BME280;62389;51.412;5.436;2024-03-22T08:59:48;101671.09;;;11.22;100.00
74045;BME280;62389;51.412;5.436;2024-03-22T09:02:13;101672.09;;;11.18;100.00
74045;BME280;62389;51.412;5.436;2024-03-22T09:04:40;101671.16;;;11.21;100.00
74045;BME280;62389;51.412;5.436;2024-03-22T09:07:05;101675.53;;;11.20;100.00
74045;BME280;62389;51.412;5.436;2024-03-22T09:09:30;101678.09;;;11.22;100.00
74045;BME280;62389;51.412;5.436;2024-03-22T09:11:56;101672.00;;;11.21;100.00
74045;BME280;62389;51.412;5.436;2024-03-22T09:14:21;101670.16;;;11.23;100.00
74045;BME280;62389;51.412;5.436;2024-03-22T09:16:46;101670.09;;;11.26;100.00
74045;BME280;62389;51.412;5.436;2024-03-22T09:19:12;101664.78;;;11.28;100.00
74045;BME280;62389;51.412;5.436;2024-03-22T09:21:37;101662.09;;;11.29;100.00
74045;BME280;62389;51.412;5.436;2024-03-22T09:24:02;101668.09;;;11.33;100.00
74045;BME280;62389;51.412;5.436;2024-03-22T09:26:32;101659.25;;;11.37;100.00
74045;BME280;62389;51.412;5.436;2024-03-22T09:28:57;101652.34;;;11.34;100.00
74045;BME280;62389;51.412;5.436;2024-03-22T09:31:23;101651.53;;;11.32;100.00
74045;BME280;62389;51.412;5.436;2024-03-22T09:33:48;101657.47;;;11.37;100.00
74045;BME280;62389;51.412;5.436;2024-03-22T09:36:13;101651.06;;;11.46;100.00
74045;BME280;62389;51.412;5.436;2024-03-22T09:38:39;101648.00;;;11.60;100.00
74045;BME280;62389;51.412;5.436;2024-03-22T09:41:04;101640.91;;;11.62;100.00
74045;BME280;62389;51.412;5.436;2024-03-22T09:43:30;101648.31;;;11.51;99.76
74045;BME280;62389;51.412;5.436;2024-03-22T09:45:58;101641.34;;;11.50;100.00
74045;BME280;62389;51.412;5.436;2024-03-22T09:48:23;101629.81;;;11.55;100.00
74045;BME280;62389;51.412;5.436;2024-03-22T09:50:50;101629.84;;;11.54;100.00
74045;BME280;62389;51.412;5.436;2024-03-22T09:53:19;101630.75;;;11.53;100.00
74045;BME280;62389;51.412;5.436;2024-03-22T09:55:47;101633.38;;;11.53;100.00
74045;BME280;62389;51.412;5.436;2024-03-22T09:58:12;101629.03;;;11.52;99.53
74045;BME280;62389;51.412;5.436;2024-03-22T10:00:38;101634.50;;;11.46;100.00
74045;BME280;62389;51.412;5.436;2024-03-22T10:03:03;101624.94;;;11.45;100.00
74045;BME280;62389;51.412;5.436;2024-03-22T10:05:29;101632.81;;;11.45;100.00
74045;BME280;62389;51.412;5.436;2024-03-22T10:07:55;101629.44;;;11.41;100.00
74045;BME280;62389;51.412;5.436;2024-03-22T10:10:20;101627.88;;;11.35;100.00
74045;BME280;62389;51.412;5.436;2024-03-22T10:12:46;101626.13;;;11.34;100.00
74045;BME280;62389;51.412;5.436;2024-03-22T10:15:12;101620.81;;;11.37;100.00
74045;BME280;62389;51.412;5.436;2024-03-22T10:17:39;101629.59;;;11.36;100.00
74045;BME280;62389;51.412;5.436;2024-03-22T10:20:05;101619.19;;;11.33;100.00
74045;BME280;62389;51.412;5.436;2024-03-22T10:22:37;101625.25;;;11.35;100.00
74045;BME280;62389;51.412;5.436;2024-03-22T10:25:04;101626.34;;;11.28;100.00
74045;BME280;62389;51.412;5.436;2024-03-22T10:27:31;101624.00;;;11.21;100.00
74045;BME280;62389;51.412;5.436;2024-03-22T10:29:57;101622.31;;;11.20;100.00
74045;BME280;62389;51.412;5.436;2024-03-22T10:32:23;101618.00;;;11.17;100.00
74045;BME280;62389;51.412;5.436;2024-03-22T10:34:49;101617.22;;;11.15;100.00
74045;BME280;62389;51.412;5.436;2024-03-22T10:37:16;101615.34;;;11.19;100.00
74045;BME280;62389;51.412;5.436;2024-03-22T10:39:42;101615.34;;;11.19;100.00
74045;BME280;62389;51.412;5.436;2024-03-22T10:42:08;101625.88;;;11.17;100.00
74045;BME280;62389;51.412;5.436;2024-03-22T10:44:33;101613.91;;;11.10;100.00
74045;BME280;62389;51.412;5.436;2024-03-22T10:47:01;101623.47;;;11.11;100.00
74045;BME280;62389;51.412;5.436;2024-03-22T10:49:30;101616.63;;;11.07;100.00
74045;BME280;62389;51.412;5.436;2024-03-22T10:52:01;101619.22;;;11.07;100.00
74045;BME280;62389;51.412;5.436;2024-03-22T10:54:39;101619.22;;;11.07;100.00
74045;BME280;62389;51.412;5.436;2024-03-22T10:57:07;101616.69;;;11.05;100.00
74045;BME280;62389;51.412;5.436;2024-03-22T10:59:36;101613.28;;;11.02;100.00
74045;BME280;62389;51.412;5.436;2024-03-22T11:02:05;101603.53;;;11.07;100.00
74045;BME280;62389;51.412;5.436;2024-03-22T11:04:32;101612.06;;;11.12;100.00
74045;BME280;62389;51.412;5.436;2024-03-22T11:06:58;101614.06;;;11.05;100.00
74045;BME280;62389;51.412;5.436;2024-03-22T11:09:25;101614.06;;;11.05;100.00
74045;BME280;62389;51.412;5.436;2024-03-22T11:11:52;101594.75;;;11.08;100.00
74045;BME280;62389;51.412;5.436;2024-03-22T11:14:17;101611.16;;;11.13;100.00
74045;BME280;62389;51.412;5.436;2024-03-22T11:16:49;101605.06;;;11.12;100.00
74045;BME280;62389;51.412;5.436;2024-03-22T11:19:15;101606.91;;;11.10;100.00
74045;BME280;62389;51.412;5.436;2024-03-22T11:21:40;101601.75;;;11.07;100.00
74045;BME280;62389;51.412;5.436;2024-03-22T11:24:06;101604.44;;;11.06;100.00
74045;BME280;62389;51.412;5.436;2024-03-22T11:26:32;101611.47;;;11.04;100.00
74045;BME280;62389;51.412;5.436;2024-03-22T11:28:58;101607.16;;;11.03;100.00
74045;BME280;62389;51.412;5.436;2024-03-22T11:31:24;101611.63;;;10.99;100.00
74045;BME280;62389;51.412;5.436;2024-03-22T11:33:53;101611.78;;;10.95;100.00
74045;BME280;62389;51.412;5.436;2024-03-22T11:36:19;101600.50;;;10.93;100.00
74045;BME280;62389;51.412;5.436;2024-03-22T11:38:44;101590.84;;;10.95;100.00
74045;BME280;62389;51.412;5.436;2024-03-22T11:41:10;101589.03;;;10.97;100.00
74045;BME280;62389;51.412;5.436;2024-03-22T11:43:36;101588.13;;;10.98;100.00
74045;BME280;62389;51.412;5.436;2024-03-22T11:46:02;101589.03;;;10.97;100.00
74045;BME280;62389;51.412;5.436;2024-03-22T11:48:27;101588.25;;;10.95;100.00
74045;BME280;62389;51.412;5.436;2024-03-22T11:50:53;101583.09;;;10.92;100.00
74045;BME280;62389;51.412;5.436;2024-03-22T11:53:18;101585.81;;;10.88;100.00
74045;BME280;62389;51.412;5.436;2024-03-22T11:55:44;101573.41;;;10.94;100.00
74045;BME280;62389;51.412;5.436;2024-03-22T11:58:10;101581.28;;;10.94;100.00
74045;BME280;62389;51.412;5.436;2024-03-22T12:00:36;101566.38;;;10.96;100.00
74045;BME280;62389;51.412;5.436;2024-03-22T12:03:04;101571.50;;;10.99;100.00
74045;BME280;62389;51.412;5.436;2024-03-22T12:05:31;101564.47;;;11.01;100.00
74045;BME280;62389;51.412;5.436;2024-03-22T12:07:56;101561.94;;;10.98;100.00
74045;BME280;62389;51.412;5.436;2024-03-22T12:10:22;101562.94;;;10.94;100.00
74045;BME280;62389;51.412;5.436;2024-03-22T12:12:47;101556.06;;;10.91;100.00
74045;BME280;62389;51.412;5.436;2024-03-22T12:15:12;101554.25;;;10.93;100.00
74045;BME280;62389;51.412;5.436;2024-03-22T12:17:38;101544.59;;;10.95;100.00
74045;BME280;62389;51.412;5.436;2024-03-22T12:20:06;101539.38;;;10.95;100.00
74045;BME280;62389;51.412;5.436;2024-03-22T12:22:33;101547.25;;;10.94;100.00
74045;BME280;62389;51.412;5.436;2024-03-22T12:24:59;101535.97;;;10.92;100.00
74045;BME280;62389;51.412;5.436;2024-03-22T12:27:24;101536.91;;;10.91;100.00
74045;BME280;62389;51.412;5.436;2024-03-22T12:29:50;101533.38;;;10.92;100.00
74045;BME280;62389;51.412;5.436;2024-03-22T12:32:15;101536.78;;;10.94;100.00